Tim Quigg — WDB6570 — position and weather

sailwx.info

Track history (hours):
 
Tides and Currents Weather Stations Pressure Air Temp Water Temp Dewpoint Dewpoint Depression Visibility Wind Speed Wind Dir Waves Ship Positions

Tim Quigg

Owner: Harley Marine Services, Inc, Seattle, WA. More information available from US FCC via Universal Licensing System and Coast Guard Vessel Documentation Center.

Last reported at 2015-Sep-01 13:32 UTC. Time now 2015-Sep-01 14:13 UTC.
Position N 33°45' W 118°16'.

; draft 7.5 m.

Type: Tug. MMSI: 366926740.

Date/timePositionNaut miles runAvg speedWind from/ knotsBaromVisibWave heightAir tempDewpointWater temp
2015-Sep-01 13:32N 33°45' W 118°16'0 0.2
2015-Sep-01 12:33N 33°45' W 118°16'3 2.9
2015-Sep-01 11:33N 33°43' W 118°13'3 2.9
2015-Sep-01 10:31N 33°45' W 118°16'0 0.0
2015-Sep-01 09:20N 33°45' W 118°16'1 0.3
2015-Sep-01 07:33N 33°45' W 118°16'2 2.4
2015-Sep-01 06:33N 33°45' W 118°13'2 0.8
2015-Sep-01 03:32N 33°43' W 118°15'2 2.4
2015-Sep-01 02:33N 33°45' W 118°14'2 1.2
2015-Sep-01 01:04N 33°45' W 118°16'1 2.1
2015-Sep-01 00:33N 33°46' W 118°16'0 0.0
2015-Aug-31 23:25N 33°46' W 118°16'1 1.5
2015-Aug-31 22:33N 33°45' W 118°17'2 2.3
2015-Aug-31 21:30N 33°43' W 118°15'5 5.4
2015-Aug-31 20:31N 33°44' W 118°09'2 2.3
2015-Aug-31 19:33N 33°44' W 118°06'5 4.9
2015-Aug-31 18:32N 33°43' W 118°12'3 3.1
2015-Aug-31 17:31N 33°44' W 118°16'0 0.0
2015-Aug-31 16:24N 33°44' W 118°16'1 1.1
2015-Aug-31 15:27N 33°45' W 118°17'3 3.8
2015-Aug-31 14:33N 33°45' W 118°12'1 0.4
2015-Aug-31 12:31N 33°45' W 118°13'1 0.9
2015-Aug-31 11:33N 33°45' W 118°14'2 1.9
2015-Aug-31 10:33N 33°44' W 118°12'3 3.0
2015-Aug-31 09:33N 33°43' W 118°16'1 0.7
2015-Aug-31 08:27N 33°44' W 118°16'0 0.0
2015-Aug-31 07:32N 33°44' W 118°16'0 0.0
2015-Aug-31 05:28N 33°44' W 118°16'3 3.2
2015-Aug-31 04:33N 33°46' W 118°13'2 1.6
2015-Aug-31 03:09N 33°44' W 118°12'3 3.6
2015-Aug-31 02:18N 33°46' W 118°13'4 5.0
2015-Aug-31 01:32N 33°43' W 118°16'1 1.0
2015-Aug-31 00:32N 33°44' W 118°15'1 0.9
2015-Aug-30 23:33N 33°44' W 118°16'3 2.7
2015-Aug-30 22:33N 33°43' W 118°13'1 1.4
2015-Aug-30 21:33N 33°43' W 118°14'2 1.5
2015-Aug-30 20:31N 33°44' W 118°16'0 0.0
2015-Aug-30 19:27N 33°44' W 118°16'0 0.0
2015-Aug-30 18:33N 33°44' W 118°16'0 0.0
2015-Aug-30 17:33N 33°44' W 118°16'0 0.0
2015-Aug-30 16:33N 33°44' W 118°16'1 0.7
2015-Aug-30 15:24N 33°44' W 118°17'1 1.3
2015-Aug-30 14:31N 33°45' W 118°17'1 0.5
2015-Aug-30 13:31N 33°45' W 118°16'1 1.4
2015-Aug-30 12:33N 33°44' W 118°16'3 2.7
2015-Aug-30 11:33N 33°45' W 118°13'1 1.0
2015-Aug-30 10:33N 33°46' W 118°14'0 0.0
2015-Aug-30 09:33N 33°46' W 118°14'1 1.3
2015-Aug-30 08:33N 33°46' W 118°15'0 0.4
2015-Aug-30 07:33N 33°46' W 118°15'3 2.8
2015-Aug-30 06:33N 33°43' W 118°14'2 1.6
2015-Aug-30 05:29N 33°44' W 118°16'3 2.3
2015-Aug-30 04:15N 33°46' W 118°13'0 0.3
2015-Aug-30 03:31N 33°46' W 118°13'3 3.1
2015-Aug-30 02:33N 33°43' W 118°14'2 1.6
2015-Aug-30 01:28N 33°44' W 118°16'0 0.0
2015-Aug-30 00:33N 33°44' W 118°16'0 0.0
2015-Aug-29 23:33N 33°44' W 118°16'4 4.0
2015-Aug-29 22:33N 33°45' W 118°11'1 0.9
2015-Aug-29 21:33N 33°44' W 118°11'4 3.7
2015-Aug-29 20:25N 33°43' W 118°15'1 1.0
2015-Aug-29 19:30N 33°44' W 118°16'0 0.0
2015-Aug-29 18:27N 33°44' W 118°16'0 0.0
2015-Aug-29 17:31N 33°44' W 118°16'0 0.0
2015-Aug-29 16:33N 33°44' W 118°16'0 0.0
2015-Aug-29 15:33N 33°44' W 118°16'1 0.7
2015-Aug-29 14:33N 33°43' W 118°16'1 0.5
2015-Aug-29 13:28N 33°44' W 118°16'2 2.5
2015-Aug-29 12:33N 33°45' W 118°14'3 2.5
2015-Aug-29 11:25N 33°44' W 118°11'4 3.8
2015-Aug-29 10:25N 33°43' W 118°16'2 2.6
2015-Aug-29 09:32N 33°44' W 118°13'2 0.7
2015-Aug-29 06:27N 33°44' W 118°16'0 0.1
2015-Aug-29 05:33N 33°44' W 118°16'0 0.0
2015-Aug-29 04:32N 33°44' W 118°16'3 2.9
2015-Aug-29 03:33N 33°45' W 118°12'0 0.2
2015-Aug-29 02:32N 33°45' W 118°12'0 0.1
2015-Aug-29 01:28N 33°45' W 118°12'3 2.9
2015-Aug-29 00:26N 33°44' W 118°16'0 0.2
2015-Aug-28 23:22N 33°44' W 118°16'0 0.0
2015-Aug-28 22:33N 33°44' W 118°16'0 0.0
2015-Aug-28 21:33N 33°44' W 118°16'0 0.1
2015-Aug-28 19:24N 33°44' W 118°16'2 1.9
2015-Aug-28 18:31N 33°43' W 118°14'2 1.6
2015-Aug-28 17:33N 33°44' W 118°16'1 0.5
2015-Aug-28 16:33N 33°43' W 118°16'2 1.6
2015-Aug-28 15:31N 33°45' W 118°16'0 0.5
2015-Aug-28 14:33N 33°45' W 118°17'3 3.2
2015-Aug-28 13:33N 33°43' W 118°15'3 3.2
2015-Aug-28 12:33N 33°45' W 118°17'2 1.6
2015-Aug-28 11:24N 33°44' W 118°15'0 0.4
2015-Aug-28 10:33N 33°44' W 118°16'0 0.1
2015-Aug-28 09:33N 33°44' W 118°16'0 0.0
2015-Aug-28 08:33N 33°44' W 118°16'0 0.0
2015-Aug-28 07:33N 33°44' W 118°16'0 0.0
2015-Aug-28 06:27N 33°44' W 118°16'0 0.0
2015-Aug-28 05:33N 33°44' W 118°16'0 0.0
2015-Aug-28 04:33N 33°44' W 118°16'0 0.0
2015-Aug-28 03:33N 33°44' W 118°16'1 1.5
2015-Aug-28 02:33N 33°43' W 118°14'1 1.3
2015-Aug-28 01:33N 33°44' W 118°15'0 0.3
2015-Aug-28 00:32N 33°44' W 118°16'0 0.0
2015-Aug-27 23:32N 33°44' W 118°16'0 0.1
2015-Aug-27 22:33N 33°44' W 118°16'0 0.0
2015-Aug-27 21:33N 33°44' W 118°16'0 0.0
2015-Aug-27 20:33N 33°44' W 118°16'0 0.0
2015-Aug-27 19:33N 33°44' W 118°16'0 0.0
2015-Aug-27 18:33N 33°44' W 118°16'0 0.0
2015-Aug-27 17:25N 33°44' W 118°16'1 0.6
2015-Aug-27 16:21N 33°44' W 118°16'0 0.0
2015-Aug-27 15:30N 33°44' W 118°16'5 4.9
2015-Aug-27 14:33N 33°45' W 118°11'2 1.6
2015-Aug-27 13:33N 33°45' W 118°13'1 0.5
2015-Aug-27 12:33N 33°46' W 118°13'2 1.8
2015-Aug-27 11:33N 33°44' W 118°12'3 2.9
2015-Aug-27 10:33N 33°43' W 118°16'1 0.5
2015-Aug-27 09:33N 33°44' W 118°16'0 0.0
2015-Aug-27 08:33N 33°44' W 118°16'0 0.1
2015-Aug-27 07:33N 33°44' W 118°16'0 0.1
2015-Aug-27 06:33N 33°44' W 118°16'0 0.0
2015-Aug-27 05:33N 33°44' W 118°16'0 0.0
2015-Aug-27 04:33N 33°44' W 118°16'3 2.6
2015-Aug-27 03:33N 33°45' W 118°13'1 0.5
2015-Aug-27 02:33N 33°44' W 118°12'3 2.7
2015-Aug-27 01:32N 33°44' W 118°16'2 1.8
2015-Aug-27 00:33N 33°46' W 118°16'0 0.2
2015-Aug-26 23:33N 33°46' W 118°15'2 2.2
2015-Aug-26 22:33N 33°46' W 118°13'3 2.6
2015-Aug-26 21:33N 33°44' W 118°12'2 1.8
2015-Aug-26 20:33N 33°43' W 118°14'2 1.7
2015-Aug-26 19:33N 33°44' W 118°16'0 0.0
2015-Aug-26 18:32N 33°44' W 118°16'0 0.0
2015-Aug-26 17:33N 33°44' W 118°16'0 0.0
2015-Aug-26 16:33N 33°44' W 118°16'0 0.0
2015-Aug-26 15:31N 33°44' W 118°16'0 0.0
2015-Aug-26 14:33N 33°44' W 118°16'2 1.7
2015-Aug-26 13:33N 33°46' W 118°16'3 2.8
2015-Aug-26 12:33N 33°43' W 118°15'3 2.8
2015-Aug-26 11:34N 33°46' W 118°16'1 0.6
2015-Aug-26 10:33N 33°45' W 118°16'0 0.0
2015-Aug-26 09:32N 33°45' W 118°16'1 0.5
2015-Aug-26 08:33N 33°45' W 118°16'0 0.3
2015-Aug-26 07:33N 33°45' W 118°16'1 1.4
2015-Aug-26 06:33N 33°44' W 118°16'0 0.0
2015-Aug-26 05:32N 33°44' W 118°16'0 0.0
2015-Aug-26 04:28N 33°44' W 118°16'0 0.0
2015-Aug-26 03:33N 33°44' W 118°16'3 2.7
2015-Aug-26 02:33N 33°44' W 118°12'1 1.0
2015-Aug-26 01:33N 33°45' W 118°12'1 1.4
2015-Aug-26 00:33N 33°46' W 118°13'0 0.0
2015-Aug-25 23:33N 33°46' W 118°13'1 1.2
2015-Aug-25 22:33N 33°45' W 118°13'0 0.0
2015-Aug-25 21:33N 33°45' W 118°13'0 0.0
2015-Aug-25 20:33N 33°45' W 118°13'1 1.0
2015-Aug-25 19:31N 33°45' W 118°12'1 1.2
2015-Aug-25 18:33N 33°43' W 118°11'4 3.4
2015-Aug-25 17:29N 33°44' W 118°16'0 0.0
2015-Aug-25 16:32N 33°44' W 118°16'2 1.7
2015-Aug-25 15:33N 33°46' W 118°16'3 2.7
2015-Aug-25 14:33N 33°45' W 118°12'3 2.8
2015-Aug-25 13:33N 33°44' W 118°16'3 2.7
2015-Aug-25 12:32N 33°44' W 118°12'0 0.2
2015-Aug-25 11:33N 33°44' W 118°12'1 1.3
2015-Aug-25 10:33N 33°44' W 118°11'4 4.1
2015-Aug-25 09:33N 33°44' W 118°16'0 0.0
2015-Aug-25 08:33N 33°44' W 118°16'0 0.0
2015-Aug-25 07:33N 33°44' W 118°16'0 0.0
2015-Aug-25 06:33N 33°44' W 118°16'0 0.0
2015-Aug-25 05:33N 33°44' W 118°16'1 1.2
2015-Aug-25 04:33N 33°45' W 118°16'0 0.3
2015-Aug-25 03:33N 33°45' W 118°17'1 0.7
2015-Aug-25 02:33N 33°45' W 118°16'3 2.8
2015-Aug-25 01:33N 33°44' W 118°13'1 1.3
2015-Aug-25 00:33N 33°45' W 118°13'3 2.7
2015-Aug-24 23:33N 33°44' W 118°16'0 0.3
2015-Aug-24 22:33N 33°44' W 118°15'3 2.6
2015-Aug-24 21:33N 33°45' W 118°12'3 2.8
2015-Aug-24 20:33N 33°44' W 118°16'0 0.1
2015-Aug-24 19:33N 33°44' W 118°16'0 0.1
2015-Aug-24 18:04N 33°44' W 118°16'0 0.0
2015-Aug-24 17:22N 33°44' W 118°16'0 0.0
2015-Aug-24 16:23N 33°44' W 118°16'3 3.7
2015-Aug-24 15:33N 33°46' W 118°13'3 3.1
2015-Aug-24 14:33N 33°43' W 118°14'2 1.7
2015-Aug-24 13:32N 33°44' W 118°16'0 0.0
2015-Aug-24 12:32N 33°44' W 118°16'0 0.0
2015-Aug-24 11:32N 33°44' W 118°16'0 0.0
2015-Aug-24 10:29N 33°44' W 118°16'1 0.7
2015-Aug-24 09:33N 33°43' W 118°16'1 0.7
2015-Aug-24 08:33N 33°44' W 118°16'0 0.0
2015-Aug-24 07:33N 33°44' W 118°16'0 0.0
2015-Aug-24 06:33N 33°44' W 118°16'0 0.0
2015-Aug-24 05:31N 33°44' W 118°16'0 0.0
2015-Aug-24 04:26N 33°44' W 118°16'0 0.0
2015-Aug-24 03:33N 33°44' W 118°16'1 1.1
2015-Aug-24 02:33N 33°45' W 118°16'1 1.1
2015-Aug-24 01:33N 33°44' W 118°16'0 0.0
2015-Aug-24 00:33N 33°44' W 118°16'0 0.0
2015-Aug-23 23:33N 33°44' W 118°16'0 0.0
2015-Aug-23 22:33N 33°44' W 118°16'0 0.0
2015-Aug-23 21:23N 33°44' W 118°16'0 0.0
2015-Aug-23 20:33N 33°44' W 118°16'0 0.0
2015-Aug-23 19:33N 33°44' W 118°16'0 0.1
2015-Aug-23 18:33N 33°44' W 118°16'0 0.0
2015-Aug-23 17:31N 33°44' W 118°16'4 4.2
2015-Aug-23 16:28N 33°44' W 118°10'4 4.1
2015-Aug-23 15:33N 33°44' W 118°06'1 1.1
2015-Aug-23 14:33N 33°43' W 118°07'5 4.8
2015-Aug-23 13:33N 33°44' W 118°12'2 2.4
2015-Aug-23 12:33N 33°44' W 118°15'1 0.9
2015-Aug-23 11:33N 33°43' W 118°15'3 2.6
2015-Aug-23 10:33N 33°45' W 118°13'1 1.2
2015-Aug-23 09:33N 33°46' W 118°14'0 0.1
2015-Aug-23 08:33N 33°46' W 118°14'3 2.6
2015-Aug-23 07:33N 33°44' W 118°16'0 0.1
2015-Aug-23 06:33N 33°44' W 118°16'0 0.0
2015-Aug-23 05:33N 33°44' W 118°16'0 0.0
2015-Aug-23 04:33N 33°44' W 118°16'2 2.3
2015-Aug-23 03:33N 33°44' W 118°13'1 1.0
2015-Aug-23 02:33N 33°45' W 118°13'0 0.2
2015-Aug-23 01:33N 33°45' W 118°13'2 2.3
2015-Aug-23 00:33N 33°43' W 118°11'2 2.2
2015-Aug-22 23:34N 33°45' W 118°13'2 1.8
2015-Aug-22 22:33N 33°44' W 118°12'0 0.0
2015-Aug-22 21:33N 33°44' W 118°12'0 0.0
2015-Aug-22 20:33N 33°44' W 118°12'2 1.4
2015-Aug-22 19:26N 33°45' W 118°11'4 2.1
2015-Aug-22 17:28N 33°44' W 118°16'0 0.1
2015-Aug-22 16:10N 33°44' W 118°16'2 3.2
2015-Aug-22 15:30N 33°44' W 118°13'  
Track history (hours):
 
Tides and Currents Weather Stations Pressure Air Temp Water Temp Dewpoint Dewpoint Depression Visibility Wind Speed Wind Dir Waves Ship Positions

Tim Quigg

Owner: Harley Marine Services, Inc, Seattle, WA. More information available from US FCC via Universal Licensing System and Coast Guard Vessel Documentation Center.

Last reported at 2015-Sep-01 13:32 UTC. Time now 2015-Sep-01 14:13 UTC.
Position N 33°45' W 118°16'.

; draft 7.5 m.

Type: Tug. MMSI: 366926740.

Date/timePositionNaut miles runAvg speedWind from/ knotsBaromVisibWave heightAir tempDewpointWater temp
2015-Sep-01 13:32N 33°45' W 118°16'0 0.2
2015-Sep-01 12:33N 33°45' W 118°16'3 2.9
2015-Sep-01 11:33N 33°43' W 118°13'3 2.9
2015-Sep-01 10:31N 33°45' W 118°16'0 0.0
2015-Sep-01 09:20N 33°45' W 118°16'1 0.3
2015-Sep-01 07:33N 33°45' W 118°16'2 2.4
2015-Sep-01 06:33N 33°45' W 118°13'2 0.8
2015-Sep-01 03:32N 33°43' W 118°15'2 2.4
2015-Sep-01 02:33N 33°45' W 118°14'2 1.2
2015-Sep-01 01:04N 33°45' W 118°16'1 2.1
2015-Sep-01 00:33N 33°46' W 118°16'0 0.0
2015-Aug-31 23:25N 33°46' W 118°16'1 1.5
2015-Aug-31 22:33N 33°45' W 118°17'2 2.3
2015-Aug-31 21:30N 33°43' W 118°15'5 5.4
2015-Aug-31 20:31N 33°44' W 118°09'2 2.3
2015-Aug-31 19:33N 33°44' W 118°06'5 4.9
2015-Aug-31 18:32N 33°43' W 118°12'3 3.1
2015-Aug-31 17:31N 33°44' W 118°16'0 0.0
2015-Aug-31 16:24N 33°44' W 118°16'1 1.1
2015-Aug-31 15:27N 33°45' W 118°17'3 3.8
2015-Aug-31 14:33N 33°45' W 118°12'1 0.4
2015-Aug-31 12:31N 33°45' W 118°13'1 0.9
2015-Aug-31 11:33N 33°45' W 118°14'2 1.9
2015-Aug-31 10:33N 33°44' W 118°12'3 3.0
2015-Aug-31 09:33N 33°43' W 118°16'1 0.7
2015-Aug-31 08:27N 33°44' W 118°16'0 0.0
2015-Aug-31 07:32N 33°44' W 118°16'0 0.0
2015-Aug-31 05:28N 33°44' W 118°16'3 3.2
2015-Aug-31 04:33N 33°46' W 118°13'2 1.6
2015-Aug-31 03:09N 33°44' W 118°12'3 3.6
2015-Aug-31 02:18N 33°46' W 118°13'4 5.0
2015-Aug-31 01:32N 33°43' W 118°16'1 1.0
2015-Aug-31 00:32N 33°44' W 118°15'1 0.9
2015-Aug-30 23:33N 33°44' W 118°16'3 2.7
2015-Aug-30 22:33N 33°43' W 118°13'1 1.4
2015-Aug-30 21:33N 33°43' W 118°14'2 1.5
2015-Aug-30 20:31N 33°44' W 118°16'0 0.0
2015-Aug-30 19:27N 33°44' W 118°16'0 0.0
2015-Aug-30 18:33N 33°44' W 118°16'0 0.0
2015-Aug-30 17:33N 33°44' W 118°16'0 0.0
2015-Aug-30 16:33N 33°44' W 118°16'1 0.7
2015-Aug-30 15:24N 33°44' W 118°17'1 1.3
2015-Aug-30 14:31N 33°45' W 118°17'1 0.5
2015-Aug-30 13:31N 33°45' W 118°16'1 1.4
2015-Aug-30 12:33N 33°44' W 118°16'3 2.7
2015-Aug-30 11:33N 33°45' W 118°13'1 1.0
2015-Aug-30 10:33N 33°46' W 118°14'0 0.0
2015-Aug-30 09:33N 33°46' W 118°14'1 1.3
2015-Aug-30 08:33N 33°46' W 118°15'0 0.4
2015-Aug-30 07:33N 33°46' W 118°15'3 2.8
2015-Aug-30 06:33N 33°43' W 118°14'2 1.6
2015-Aug-30 05:29N 33°44' W 118°16'3 2.3
2015-Aug-30 04:15N 33°46' W 118°13'0 0.3
2015-Aug-30 03:31N 33°46' W 118°13'3 3.1
2015-Aug-30 02:33N 33°43' W 118°14'2 1.6
2015-Aug-30 01:28N 33°44' W 118°16'0 0.0
2015-Aug-30 00:33N 33°44' W 118°16'0 0.0
2015-Aug-29 23:33N 33°44' W 118°16'4 4.0
2015-Aug-29 22:33N 33°45' W 118°11'1 0.9
2015-Aug-29 21:33N 33°44' W 118°11'4 3.7
2015-Aug-29 20:25N 33°43' W 118°15'1 1.0
2015-Aug-29 19:30N 33°44' W 118°16'0 0.0
2015-Aug-29 18:27N 33°44' W 118°16'0 0.0
2015-Aug-29 17:31N 33°44' W 118°16'0 0.0
2015-Aug-29 16:33N 33°44' W 118°16'0 0.0
2015-Aug-29 15:33N 33°44' W 118°16'1 0.7
2015-Aug-29 14:33N 33°43' W 118°16'1 0.5
2015-Aug-29 13:28N 33°44' W 118°16'2 2.5
2015-Aug-29 12:33N 33°45' W 118°14'3 2.5
2015-Aug-29 11:25N 33°44' W 118°11'4 3.8
2015-Aug-29 10:25N 33°43' W 118°16'2 2.6
2015-Aug-29 09:32N 33°44' W 118°13'2 0.7
2015-Aug-29 06:27N 33°44' W 118°16'0 0.1
2015-Aug-29 05:33N 33°44' W 118°16'0 0.0
2015-Aug-29 04:32N 33°44' W 118°16'3 2.9
2015-Aug-29 03:33N 33°45' W 118°12'0 0.2
2015-Aug-29 02:32N 33°45' W 118°12'0 0.1
2015-Aug-29 01:28N 33°45' W 118°12'3 2.9
2015-Aug-29 00:26N 33°44' W 118°16'0 0.2
2015-Aug-28 23:22N 33°44' W 118°16'0 0.0
2015-Aug-28 22:33N 33°44' W 118°16'0 0.0
2015-Aug-28 21:33N 33°44' W 118°16'0 0.1
2015-Aug-28 19:24N 33°44' W 118°16'2 1.9
2015-Aug-28 18:31N 33°43' W 118°14'2 1.6
2015-Aug-28 17:33N 33°44' W 118°16'1 0.5
2015-Aug-28 16:33N 33°43' W 118°16'2 1.6
2015-Aug-28 15:31N 33°45' W 118°16'0 0.5
2015-Aug-28 14:33N 33°45' W 118°17'3 3.2
2015-Aug-28 13:33N 33°43' W 118°15'3 3.2
2015-Aug-28 12:33N 33°45' W 118°17'2 1.6
2015-Aug-28 11:24N 33°44' W 118°15'0 0.4
2015-Aug-28 10:33N 33°44' W 118°16'0 0.1
2015-Aug-28 09:33N 33°44' W 118°16'0 0.0
2015-Aug-28 08:33N 33°44' W 118°16'0 0.0
2015-Aug-28 07:33N 33°44' W 118°16'0 0.0
2015-Aug-28 06:27N 33°44' W 118°16'0 0.0
2015-Aug-28 05:33N 33°44' W 118°16'0 0.0
2015-Aug-28 04:33N 33°44' W 118°16'0 0.0
2015-Aug-28 03:33N 33°44' W 118°16'1 1.5
2015-Aug-28 02:33N 33°43' W 118°14'1 1.3
2015-Aug-28 01:33N 33°44' W 118°15'0 0.3
2015-Aug-28 00:32N 33°44' W 118°16'0 0.0
2015-Aug-27 23:32N 33°44' W 118°16'0 0.1
2015-Aug-27 22:33N 33°44' W 118°16'0 0.0
2015-Aug-27 21:33N 33°44' W 118°16'0 0.0
2015-Aug-27 20:33N 33°44' W 118°16'0 0.0
2015-Aug-27 19:33N 33°44' W 118°16'0 0.0
2015-Aug-27 18:33N 33°44' W 118°16'0 0.0
2015-Aug-27 17:25N 33°44' W 118°16'1 0.6
2015-Aug-27 16:21N 33°44' W 118°16'0 0.0
2015-Aug-27 15:30N 33°44' W 118°16'5 4.9
2015-Aug-27 14:33N 33°45' W 118°11'2 1.6
2015-Aug-27 13:33N 33°45' W 118°13'1 0.5
2015-Aug-27 12:33N 33°46' W 118°13'2 1.8
2015-Aug-27 11:33N 33°44' W 118°12'3 2.9
2015-Aug-27 10:33N 33°43' W 118°16'1 0.5
2015-Aug-27 09:33N 33°44' W 118°16'0 0.0
2015-Aug-27 08:33N 33°44' W 118°16'0 0.1
2015-Aug-27 07:33N 33°44' W 118°16'0 0.1
2015-Aug-27 06:33N 33°44' W 118°16'0 0.0
2015-Aug-27 05:33N 33°44' W 118°16'0 0.0
2015-Aug-27 04:33N 33°44' W 118°16'3 2.6
2015-Aug-27 03:33N 33°45' W 118°13'1 0.5
2015-Aug-27 02:33N 33°44' W 118°12'3 2.7
2015-Aug-27 01:32N 33°44' W 118°16'2 1.8
2015-Aug-27 00:33N 33°46' W 118°16'0 0.2
2015-Aug-26 23:33N 33°46' W 118°15'2 2.2
2015-Aug-26 22:33N 33°46' W 118°13'3 2.6
2015-Aug-26 21:33N 33°44' W 118°12'2 1.8
2015-Aug-26 20:33N 33°43' W 118°14'2 1.7
2015-Aug-26 19:33N 33°44' W 118°16'0 0.0
2015-Aug-26 18:32N 33°44' W 118°16'0 0.0
2015-Aug-26 17:33N 33°44' W 118°16'0 0.0
2015-Aug-26 16:33N 33°44' W 118°16'0 0.0
2015-Aug-26 15:31N 33°44' W 118°16'0 0.0
2015-Aug-26 14:33N 33°44' W 118°16'2 1.7
2015-Aug-26 13:33N 33°46' W 118°16'3 2.8
2015-Aug-26 12:33N 33°43' W 118°15'3 2.8
2015-Aug-26 11:34N 33°46' W 118°16'1 0.6
2015-Aug-26 10:33N 33°45' W 118°16'0 0.0
2015-Aug-26 09:32N 33°45' W 118°16'1 0.5
2015-Aug-26 08:33N 33°45' W 118°16'0 0.3
2015-Aug-26 07:33N 33°45' W 118°16'1 1.4
2015-Aug-26 06:33N 33°44' W 118°16'0 0.0
2015-Aug-26 05:32N 33°44' W 118°16'0 0.0
2015-Aug-26 04:28N 33°44' W 118°16'0 0.0
2015-Aug-26 03:33N 33°44' W 118°16'3 2.7
2015-Aug-26 02:33N 33°44' W 118°12'1 1.0
2015-Aug-26 01:33N 33°45' W 118°12'1 1.4
2015-Aug-26 00:33N 33°46' W 118°13'0 0.0
2015-Aug-25 23:33N 33°46' W 118°13'1 1.2
2015-Aug-25 22:33N 33°45' W 118°13'0 0.0
2015-Aug-25 21:33N 33°45' W 118°13'0 0.0
2015-Aug-25 20:33N 33°45' W 118°13'1 1.0
2015-Aug-25 19:31N 33°45' W 118°12'1 1.2
2015-Aug-25 18:33N 33°43' W 118°11'4 3.4
2015-Aug-25 17:29N 33°44' W 118°16'0 0.0
2015-Aug-25 16:32N 33°44' W 118°16'2 1.7
2015-Aug-25 15:33N 33°46' W 118°16'3 2.7
2015-Aug-25 14:33N 33°45' W 118°12'3 2.8
2015-Aug-25 13:33N 33°44' W 118°16'3 2.7
2015-Aug-25 12:32N 33°44' W 118°12'0 0.2
2015-Aug-25 11:33N 33°44' W 118°12'1 1.3
2015-Aug-25 10:33N 33°44' W 118°11'4 4.1
2015-Aug-25 09:33N 33°44' W 118°16'0 0.0
2015-Aug-25 08:33N 33°44' W 118°16'0 0.0
2015-Aug-25 07:33N 33°44' W 118°16'0 0.0
2015-Aug-25 06:33N 33°44' W 118°16'0 0.0
2015-Aug-25 05:33N 33°44' W 118°16'1 1.2
2015-Aug-25 04:33N 33°45' W 118°16'0 0.3
2015-Aug-25 03:33N 33°45' W 118°17'1 0.7
2015-Aug-25 02:33N 33°45' W 118°16'3 2.8
2015-Aug-25 01:33N 33°44' W 118°13'1 1.3
2015-Aug-25 00:33N 33°45' W 118°13'3 2.7
2015-Aug-24 23:33N 33°44' W 118°16'0 0.3
2015-Aug-24 22:33N 33°44' W 118°15'3 2.6
2015-Aug-24 21:33N 33°45' W 118°12'3 2.8
2015-Aug-24 20:33N 33°44' W 118°16'0 0.1
2015-Aug-24 19:33N 33°44' W 118°16'0 0.1
2015-Aug-24 18:04N 33°44' W 118°16'0 0.0
2015-Aug-24 17:22N 33°44' W 118°16'0 0.0
2015-Aug-24 16:23N 33°44' W 118°16'3 3.7
2015-Aug-24 15:33N 33°46' W 118°13'3 3.1
2015-Aug-24 14:33N 33°43' W 118°14'2 1.7
2015-Aug-24 13:32N 33°44' W 118°16'0 0.0
2015-Aug-24 12:32N 33°44' W 118°16'0 0.0
2015-Aug-24 11:32N 33°44' W 118°16'0 0.0
2015-Aug-24 10:29N 33°44' W 118°16'1 0.7
2015-Aug-24 09:33N 33°43' W 118°16'1 0.7
2015-Aug-24 08:33N 33°44' W 118°16'0 0.0
2015-Aug-24 07:33N 33°44' W 118°16'0 0.0
2015-Aug-24 06:33N 33°44' W 118°16'0 0.0
2015-Aug-24 05:31N 33°44' W 118°16'0 0.0
2015-Aug-24 04:26N 33°44' W 118°16'0 0.0
2015-Aug-24 03:33N 33°44' W 118°16'1 1.1
2015-Aug-24 02:33N 33°45' W 118°16'1 1.1
2015-Aug-24 01:33N 33°44' W 118°16'0 0.0
2015-Aug-24 00:33N 33°44' W 118°16'0 0.0
2015-Aug-23 23:33N 33°44' W 118°16'0 0.0
2015-Aug-23 22:33N 33°44' W 118°16'0 0.0
2015-Aug-23 21:23N 33°44' W 118°16'0 0.0
2015-Aug-23 20:33N 33°44' W 118°16'0 0.0
2015-Aug-23 19:33N 33°44' W 118°16'0 0.1
2015-Aug-23 18:33N 33°44' W 118°16'0 0.0
2015-Aug-23 17:31N 33°44' W 118°16'4 4.2
2015-Aug-23 16:28N 33°44' W 118°10'4 4.1
2015-Aug-23 15:33N 33°44' W 118°06'1 1.1
2015-Aug-23 14:33N 33°43' W 118°07'5 4.8
2015-Aug-23 13:33N 33°44' W 118°12'2 2.4
2015-Aug-23 12:33N 33°44' W 118°15'1 0.9
2015-Aug-23 11:33N 33°43' W 118°15'3 2.6
2015-Aug-23 10:33N 33°45' W 118°13'1 1.2
2015-Aug-23 09:33N 33°46' W 118°14'0 0.1
2015-Aug-23 08:33N 33°46' W 118°14'3 2.6
2015-Aug-23 07:33N 33°44' W 118°16'0 0.1
2015-Aug-23 06:33N 33°44' W 118°16'0 0.0
2015-Aug-23 05:33N 33°44' W 118°16'0 0.0
2015-Aug-23 04:33N 33°44' W 118°16'2 2.3
2015-Aug-23 03:33N 33°44' W 118°13'1 1.0
2015-Aug-23 02:33N 33°45' W 118°13'0 0.2
2015-Aug-23 01:33N 33°45' W 118°13'2 2.3
2015-Aug-23 00:33N 33°43' W 118°11'2 2.2
2015-Aug-22 23:34N 33°45' W 118°13'2 1.8
2015-Aug-22 22:33N 33°44' W 118°12'0 0.0
2015-Aug-22 21:33N 33°44' W 118°12'0 0.0
2015-Aug-22 20:33N 33°44' W 118°12'2 1.4
2015-Aug-22 19:26N 33°45' W 118°11'4 2.1
2015-Aug-22 17:28N 33°44' W 118°16'0 0.1
2015-Aug-22 16:10N 33°44' W 118°16'2 3.2
2015-Aug-22 15:30N 33°44' W 118°13'  

Dump ship's entire track history